sensor_id;sensor_type;location;lat;lon;timestamp;P1;durP1;ratioP1;P2;durP2;ratioP2
9436;SDS011;4757;59.334;18.034;2023-03-22T05:49:07;2.40;;;2.20;;
9436;SDS011;4757;59.334;18.034;2023-03-22T12:33:34;2.27;;;2.07;;
9436;SDS011;4757;59.334;18.034;2023-03-22T12:36:13;2.67;;;2.00;;
9436;SDS011;4757;59.334;18.034;2023-03-22T12:38:53;5.20;;;2.80;;
9436;SDS011;4757;59.334;18.034;2023-03-22T12:41:44;4.03;;;3.27;;
9436;SDS011;4757;59.334;18.034;2023-03-22T12:44:16;5.87;;;2.80;;
9436;SDS011;4757;59.334;18.034;2023-03-22T12:46:50;3.07;;;2.77;;
9436;SDS011;4757;59.334;18.034;2023-03-22T12:52:03;3.93;;;2.93;;
9436;SDS011;4757;59.334;18.034;2023-03-22T12:54:49;2.57;;;2.13;;
9436;SDS011;4757;59.334;18.034;2023-03-22T12:57:18;4.20;;;2.13;;
9436;SDS011;4757;59.334;18.034;2023-03-22T12:59:47;5.00;;;2.00;;
9436;SDS011;4757;59.334;18.034;2023-03-22T13:02:30;5.00;;;2.00;;
9436;SDS011;4757;59.334;18.034;2023-03-22T13:05:06;3.00;;;2.10;;
9436;SDS011;4757;59.334;18.034;2023-03-22T13:13:13;2.30;;;2.13;;
9436;SDS011;4757;59.334;18.034;2023-03-22T13:16:39;1.97;;;1.87;;
9436;SDS011;4757;59.334;18.034;2023-03-22T13:19:16;2.40;;;2.17;;
9436;SDS011;4757;59.334;18.034;2023-03-22T13:21:21;2.07;;;1.83;;
9436;SDS011;4757;59.334;18.034;2023-03-22T13:26:35;4.30;;;1.70;;
9436;SDS011;4757;59.334;18.034;2023-03-22T13:29:08;3.20;;;2.00;;
9436;SDS011;4757;59.334;18.034;2023-03-22T13:32:01;3.07;;;1.63;;
9436;SDS011;4757;59.334;18.034;2023-03-22T13:34:45;5.10;;;2.23;;
9436;SDS011;4757;59.334;18.034;2023-03-22T13:37:21;4.33;;;1.83;;
9436;SDS011;4757;59.334;18.034;2023-03-22T13:40:10;7.07;;;1.73;;
9436;SDS011;4757;59.334;18.034;2023-03-22T13:42:51;2.80;;;1.50;;
9436;SDS011;4757;59.334;18.034;2023-03-22T13:45:29;3.27;;;1.77;;
9436;SDS011;4757;59.334;18.034;2023-03-22T13:48:08;3.30;;;2.33;;
9436;SDS011;4757;59.334;18.034;2023-03-22T13:50:53;6.27;;;1.83;;
9436;SDS011;4757;59.334;18.034;2023-03-22T13:53:26;7.40;;;1.70;;
9436;SDS011;4757;59.334;18.034;2023-03-22T13:55:57;6.60;;;2.07;;
9436;SDS011;4757;59.334;18.034;2023-03-22T14:01:28;2.80;;;1.60;;
9436;SDS011;4757;59.334;18.034;2023-03-22T14:04:04;1.37;;;1.13;;
9436;SDS011;4757;59.334;18.034;2023-03-22T14:06:57;3.33;;;1.60;;
9436;SDS011;4757;59.334;18.034;2023-03-22T14:09:42;4.17;;;1.57;;
9436;SDS011;4757;59.334;18.034;2023-03-22T14:15:03;1.60;;;1.50;;
9436;SDS011;4757;59.334;18.034;2023-03-22T14:17:41;4.00;;;1.50;;
9436;SDS011;4757;59.334;18.034;2023-03-22T14:20:18;4.13;;;1.80;;
9436;SDS011;4757;59.334;18.034;2023-03-22T14:22:49;3.57;;;1.50;;
9436;SDS011;4757;59.334;18.034;2023-03-22T14:25:25;2.50;;;1.90;;
9436;SDS011;4757;59.334;18.034;2023-03-22T14:27:53;2.07;;;1.30;;
9436;SDS011;4757;59.334;18.034;2023-03-22T14:30:27;1.63;;;1.53;;
9436;SDS011;4757;59.334;18.034;2023-03-22T14:32:55;2.30;;;1.43;;
9436;SDS011;4757;59.334;18.034;2023-03-22T14:38:04;3.87;;;1.67;;
9436;SDS011;4757;59.334;18.034;2023-03-22T14:40:34;2.53;;;1.80;;
9436;SDS011;4757;59.334;18.034;2023-03-22T14:43:21;6.27;;;1.70;;
9436;SDS011;4757;59.334;18.034;2023-03-22T14:45:49;3.83;;;1.60;;
9436;SDS011;4757;59.334;18.034;2023-03-22T14:48:35;2.53;;;1.57;;
9436;SDS011;4757;59.334;18.034;2023-03-22T14:51:06;1.70;;;1.37;;
9436;SDS011;4757;59.334;18.034;2023-03-22T14:53:39;4.03;;;1.60;;
9436;SDS011;4757;59.334;18.034;2023-03-22T14:56:19;2.27;;;2.00;;
9436;SDS011;4757;59.334;18.034;2023-03-22T14:58:49;4.33;;;1.60;;
9436;SDS011;4757;59.334;18.034;2023-03-22T15:01:24;5.23;;;1.90;;
9436;SDS011;4757;59.334;18.034;2023-03-22T15:03:56;5.07;;;1.83;;
9436;SDS011;4757;59.334;18.034;2023-03-22T15:06:26;2.33;;;2.00;;
9436;SDS011;4757;59.334;18.034;2023-03-22T15:08:53;2.20;;;1.83;;
9436;SDS011;4757;59.334;18.034;2023-03-22T15:11:28;5.13;;;2.20;;
9436;SDS011;4757;59.334;18.034;2023-03-22T15:13:55;4.30;;;1.90;;
9436;SDS011;4757;59.334;18.034;2023-03-22T15:16:21;5.57;;;2.80;;
9436;SDS011;4757;59.334;18.034;2023-03-22T15:18:49;3.17;;;2.20;;
9436;SDS011;4757;59.334;18.034;2023-03-22T15:21:16;3.50;;;2.37;;
9436;SDS011;4757;59.334;18.034;2023-03-22T15:23:46;5.30;;;3.10;;
9436;SDS011;4757;59.334;18.034;2023-03-22T15:26:35;5.23;;;3.13;;
9436;SDS011;4757;59.334;18.034;2023-03-22T15:29:05;5.27;;;2.90;;
9436;SDS011;4757;59.334;18.034;2023-03-22T15:31:43;4.17;;;2.63;;
9436;SDS011;4757;59.334;18.034;2023-03-22T15:34:18;5.63;;;2.40;;
9436;SDS011;4757;59.334;18.034;2023-03-22T15:36:47;8.13;;;2.57;;
9436;SDS011;4757;59.334;18.034;2023-03-22T15:39:21;4.27;;;2.63;;
9436;SDS011;4757;59.334;18.034;2023-03-22T15:42:25;4.60;;;2.37;;
9436;SDS011;4757;59.334;18.034;2023-03-22T15:45:00;7.27;;;2.30;;
9436;SDS011;4757;59.334;18.034;2023-03-22T15:47:44;4.93;;;2.20;;
9436;SDS011;4757;59.334;18.034;2023-03-22T15:50:18;7.80;;;2.73;;
9436;SDS011;4757;59.334;18.034;2023-03-22T15:52:49;4.00;;;2.57;;
9436;SDS011;4757;59.334;18.034;2023-03-22T15:55:33;6.13;;;3.07;;
9436;SDS011;4757;59.334;18.034;2023-03-22T15:58:02;2.93;;;2.60;;
9436;SDS011;4757;59.334;18.034;2023-03-22T16:00:33;5.87;;;3.47;;
9436;SDS011;4757;59.334;18.034;2023-03-22T16:05:36;3.23;;;2.40;;
9436;SDS011;4757;59.334;18.034;2023-03-22T16:08:06;4.20;;;3.80;;
9436;SDS011;4757;59.334;18.034;2023-03-22T16:10:34;4.27;;;3.07;;
9436;SDS011;4757;59.334;18.034;2023-03-22T16:13:18;4.10;;;3.20;;
9436;SDS011;4757;59.334;18.034;2023-03-22T16:15:46;5.07;;;3.23;;
9436;SDS011;4757;59.334;18.034;2023-03-22T16:18:16;10.37;;;4.77;;
9436;SDS011;4757;59.334;18.034;2023-03-22T16:20:45;4.47;;;3.67;;
9436;SDS011;4757;59.334;18.034;2023-03-22T16:23:15;4.70;;;4.00;;
9436;SDS011;4757;59.334;18.034;2023-03-22T16:25:43;4.37;;;3.80;;
9436;SDS011;4757;59.334;18.034;2023-03-22T16:28:09;4.47;;;4.07;;
9436;SDS011;4757;59.334;18.034;2023-03-22T16:30:39;6.03;;;3.70;;
9436;SDS011;4757;59.334;18.034;2023-03-22T16:33:06;3.97;;;3.53;;
9436;SDS011;4757;59.334;18.034;2023-03-22T16:35:38;4.80;;;4.40;;
9436;SDS011;4757;59.334;18.034;2023-03-22T16:38:15;8.67;;;3.90;;
9436;SDS011;4757;59.334;18.034;2023-03-22T16:40:45;5.27;;;3.83;;
9436;SDS011;4757;59.334;18.034;2023-03-22T16:43:13;8.53;;;4.97;;
9436;SDS011;4757;59.334;18.034;2023-03-22T16:45:39;6.57;;;4.43;;
9436;SDS011;4757;59.334;18.034;2023-03-22T16:48:07;9.17;;;5.23;;
9436;SDS011;4757;59.334;18.034;2023-03-22T16:50:34;6.07;;;4.43;;
9436;SDS011;4757;59.334;18.034;2023-03-22T16:53:02;7.03;;;5.03;;
9436;SDS011;4757;59.334;18.034;2023-03-22T16:55:29;5.53;;;4.53;;
9436;SDS011;4757;59.334;18.034;2023-03-22T16:57:57;7.43;;;4.60;;
9436;SDS011;4757;59.334;18.034;2023-03-22T17:00:24;8.47;;;4.73;;
9436;SDS011;4757;59.334;18.034;2023-03-22T17:02:55;5.43;;;4.77;;
9436;SDS011;4757;59.334;18.034;2023-03-22T17:05:24;6.27;;;5.10;;
9436;SDS011;4757;59.334;18.034;2023-03-22T17:07:52;4.83;;;4.03;;
9436;SDS011;4757;59.334;18.034;2023-03-22T17:10:24;6.97;;;4.70;;
9436;SDS011;4757;59.334;18.034;2023-03-22T17:12:53;4.63;;;4.03;;
9436;SDS011;4757;59.334;18.034;2023-03-22T17:15:30;5.57;;;4.40;;
9436;SDS011;4757;59.334;18.034;2023-03-22T17:17:57;7.40;;;3.90;;
9436;SDS011;4757;59.334;18.034;2023-03-22T17:20:25;4.63;;;3.93;;
9436;SDS011;4757;59.334;18.034;2023-03-22T17:22:52;7.47;;;4.53;;
9436;SDS011;4757;59.334;18.034;2023-03-22T17:25:21;5.47;;;4.20;;
9436;SDS011;4757;59.334;18.034;2023-03-22T17:27:49;6.20;;;4.30;;
9436;SDS011;4757;59.334;18.034;2023-03-22T17:30:16;4.47;;;3.80;;
9436;SDS011;4757;59.334;18.034;2023-03-22T17:32:43;6.43;;;4.03;;
9436;SDS011;4757;59.334;18.034;2023-03-22T17:35:11;7.13;;;4.73;;
9436;SDS011;4757;59.334;18.034;2023-03-22T17:37:38;7.87;;;4.67;;
9436;SDS011;4757;59.334;18.034;2023-03-22T17:40:06;6.13;;;5.33;;
9436;SDS011;4757;59.334;18.034;2023-03-22T17:42:34;6.93;;;5.10;;
9436;SDS011;4757;59.334;18.034;2023-03-22T17:45:00;7.10;;;4.93;;
9436;SDS011;4757;59.334;18.034;2023-03-22T17:47:26;8.37;;;4.80;;
9436;SDS011;4757;59.334;18.034;2023-03-22T17:49:54;6.07;;;4.40;;
9436;SDS011;4757;59.334;18.034;2023-03-22T17:52:20;9.87;;;5.80;;
9436;SDS011;4757;59.334;18.034;2023-03-22T17:54:46;5.33;;;4.60;;
9436;SDS011;4757;59.334;18.034;2023-03-22T17:57:14;5.90;;;4.67;;
9436;SDS011;4757;59.334;18.034;2023-03-22T17:59:40;5.80;;;4.70;;
9436;SDS011;4757;59.334;18.034;2023-03-22T18:02:10;5.50;;;4.13;;
9436;SDS011;4757;59.334;18.034;2023-03-22T18:04:40;7.57;;;4.93;;
9436;SDS011;4757;59.334;18.034;2023-03-22T18:07:05;5.00;;;4.40;;
9436;SDS011;4757;59.334;18.034;2023-03-22T18:09:34;9.93;;;5.17;;
9436;SDS011;4757;59.334;18.034;2023-03-22T18:12:00;6.27;;;4.33;;
9436;SDS011;4757;59.334;18.034;2023-03-22T18:14:26;5.30;;;4.10;;
9436;SDS011;4757;59.334;18.034;2023-03-22T18:16:53;8.80;;;5.00;;
9436;SDS011;4757;59.334;18.034;2023-03-22T18:19:19;7.50;;;5.50;;
9436;SDS011;4757;59.334;18.034;2023-03-22T18:21:52;5.00;;;4.47;;
9436;SDS011;4757;59.334;18.034;2023-03-22T18:24:19;6.90;;;4.27;;
9436;SDS011;4757;59.334;18.034;2023-03-22T18:26:53;5.20;;;4.13;;
9436;SDS011;4757;59.334;18.034;2023-03-22T18:29:19;4.53;;;4.03;;
9436;SDS011;4757;59.334;18.034;2023-03-22T18:31:46;5.97;;;4.20;;
9436;SDS011;4757;59.334;18.034;2023-03-22T18:34:12;4.53;;;3.90;;
9436;SDS011;4757;59.334;18.034;2023-03-22T18:36:38;7.30;;;4.13;;
9436;SDS011;4757;59.334;18.034;2023-03-22T18:39:04;5.07;;;3.83;;
9436;SDS011;4757;59.334;18.034;2023-03-22T18:41:36;4.47;;;3.57;;
9436;SDS011;4757;59.334;18.034;2023-03-22T18:44:05;5.80;;;3.57;;
9436;SDS011;4757;59.334;18.034;2023-03-22T18:46:31;5.77;;;4.10;;
9436;SDS011;4757;59.334;18.034;2023-03-22T18:49:00;4.17;;;3.47;;
9436;SDS011;4757;59.334;18.034;2023-03-22T18:51:26;5.63;;;3.87;;
9436;SDS011;4757;59.334;18.034;2023-03-22T18:53:53;4.67;;;4.10;;
9436;SDS011;4757;59.334;18.034;2023-03-22T18:56:19;5.17;;;3.77;;
9436;SDS011;4757;59.334;18.034;2023-03-22T18:58:46;4.90;;;4.03;;
9436;SDS011;4757;59.334;18.034;2023-03-22T19:01:12;5.67;;;4.07;;
9436;SDS011;4757;59.334;18.034;2023-03-22T19:03:38;5.40;;;3.93;;
9436;SDS011;4757;59.334;18.034;2023-03-22T19:06:05;5.17;;;4.30;;
9436;SDS011;4757;59.334;18.034;2023-03-22T19:08:35;6.13;;;4.10;;
9436;SDS011;4757;59.334;18.034;2023-03-22T19:11:02;10.37;;;4.67;;
9436;SDS011;4757;59.334;18.034;2023-03-22T19:13:29;8.07;;;4.93;;
9436;SDS011;4757;59.334;18.034;2023-03-22T19:15:59;4.97;;;4.43;;
9436;SDS011;4757;59.334;18.034;2023-03-22T19:18:26;4.77;;;3.97;;
9436;SDS011;4757;59.334;18.034;2023-03-22T19:20:53;6.60;;;4.37;;
9436;SDS011;4757;59.334;18.034;2023-03-22T19:23:19;5.47;;;4.27;;
9436;SDS011;4757;59.334;18.034;2023-03-22T19:25:45;6.50;;;4.93;;
9436;SDS011;4757;59.334;18.034;2023-03-22T19:28:12;6.93;;;4.40;;
9436;SDS011;4757;59.334;18.034;2023-03-22T19:30:38;5.37;;;4.03;;
9436;SDS011;4757;59.334;18.034;2023-03-22T19:33:04;5.97;;;4.30;;
9436;SDS011;4757;59.334;18.034;2023-03-22T19:35:31;6.90;;;4.33;;
9436;SDS011;4757;59.334;18.034;2023-03-22T19:37:57;4.60;;;3.97;;
9436;SDS011;4757;59.334;18.034;2023-03-22T19:40:23;9.83;;;4.20;;
9436;SDS011;4757;59.334;18.034;2023-03-22T19:42:49;5.47;;;4.57;;
9436;SDS011;4757;59.334;18.034;2023-03-22T19:45:15;5.87;;;4.37;;
9436;SDS011;4757;59.334;18.034;2023-03-22T19:47:42;5.27;;;4.37;;
9436;SDS011;4757;59.334;18.034;2023-03-22T19:50:09;5.60;;;5.10;;
9436;SDS011;4757;59.334;18.034;2023-03-22T19:52:35;4.67;;;4.27;;
9436;SDS011;4757;59.334;18.034;2023-03-22T19:55:02;7.80;;;4.57;;
9436;SDS011;4757;59.334;18.034;2023-03-22T19:57:29;7.40;;;4.77;;
9436;SDS011;4757;59.334;18.034;2023-03-22T19:59:57;5.53;;;4.10;;
9436;SDS011;4757;59.334;18.034;2023-03-22T20:02:23;4.97;;;4.27;;
9436;SDS011;4757;59.334;18.034;2023-03-22T20:04:50;8.17;;;4.67;;
9436;SDS011;4757;59.334;18.034;2023-03-22T20:07:16;6.20;;;4.77;;
9436;SDS011;4757;59.334;18.034;2023-03-22T20:09:47;7.67;;;5.20;;
9436;SDS011;4757;59.334;18.034;2023-03-22T20:12:13;7.90;;;6.33;;
9436;SDS011;4757;59.334;18.034;2023-03-22T20:14:39;8.07;;;5.60;;
9436;SDS011;4757;59.334;18.034;2023-03-22T20:17:05;9.97;;;5.40;;
9436;SDS011;4757;59.334;18.034;2023-03-22T20:19:31;7.70;;;4.83;;
9436;SDS011;4757;59.334;18.034;2023-03-22T20:21:58;8.40;;;4.83;;
9436;SDS011;4757;59.334;18.034;2023-03-22T20:24:24;8.20;;;4.97;;
9436;SDS011;4757;59.334;18.034;2023-03-22T20:26:51;7.33;;;4.93;;
9436;SDS011;4757;59.334;18.034;2023-03-22T20:29:17;7.60;;;5.80;;
9436;SDS011;4757;59.334;18.034;2023-03-22T20:31:43;7.33;;;4.97;;
9436;SDS011;4757;59.334;18.034;2023-03-22T20:34:12;7.33;;;5.27;;
9436;SDS011;4757;59.334;18.034;2023-03-22T20:36:40;6.57;;;5.43;;
9436;SDS011;4757;59.334;18.034;2023-03-22T20:39:07;6.87;;;5.30;;
9436;SDS011;4757;59.334;18.034;2023-03-22T20:41:33;5.90;;;5.30;;
9436;SDS011;4757;59.334;18.034;2023-03-22T20:44:00;8.87;;;5.90;;
9436;SDS011;4757;59.334;18.034;2023-03-22T20:46:26;6.60;;;5.00;;
9436;SDS011;4757;59.334;18.034;2023-03-22T20:48:52;8.00;;;4.90;;
9436;SDS011;4757;59.334;18.034;2023-03-22T20:51:18;10.80;;;6.90;;
9436;SDS011;4757;59.334;18.034;2023-03-22T20:53:45;6.30;;;4.90;;
9436;SDS011;4757;59.334;18.034;2023-03-22T20:56:11;6.43;;;5.13;;
9436;SDS011;4757;59.334;18.034;2023-03-22T20:58:37;6.43;;;4.83;;
9436;SDS011;4757;59.334;18.034;2023-03-22T21:01:05;5.27;;;4.67;;
9436;SDS011;4757;59.334;18.034;2023-03-22T21:03:35;8.23;;;6.13;;
9436;SDS011;4757;59.334;18.034;2023-03-22T21:06:04;6.40;;;4.53;;
9436;SDS011;4757;59.334;18.034;2023-03-22T21:08:31;7.83;;;4.37;;
9436;SDS011;4757;59.334;18.034;2023-03-22T21:10:59;6.50;;;4.90;;
9436;SDS011;4757;59.334;18.034;2023-03-22T21:13:26;6.17;;;4.50;;
9436;SDS011;4757;59.334;18.034;2023-03-22T21:15:52;6.23;;;4.77;;
9436;SDS011;4757;59.334;18.034;2023-03-22T21:18:18;5.07;;;4.50;;
9436;SDS011;4757;59.334;18.034;2023-03-22T21:20:46;5.23;;;4.73;;
9436;SDS011;4757;59.334;18.034;2023-03-22T21:23:13;6.90;;;5.20;;
9436;SDS011;4757;59.334;18.034;2023-03-22T21:25:39;8.17;;;5.30;;
9436;SDS011;4757;59.334;18.034;2023-03-22T21:28:05;6.53;;;4.40;;
9436;SDS011;4757;59.334;18.034;2023-03-22T21:30:33;4.80;;;4.40;;
9436;SDS011;4757;59.334;18.034;2023-03-22T21:33:03;5.57;;;4.53;;
9436;SDS011;4757;59.334;18.034;2023-03-22T21:35:30;5.63;;;4.47;;
9436;SDS011;4757;59.334;18.034;2023-03-22T21:37:57;5.97;;;4.87;;
9436;SDS011;4757;59.334;18.034;2023-03-22T21:40:24;6.37;;;4.90;;
9436;SDS011;4757;59.334;18.034;2023-03-22T21:42:51;6.07;;;4.30;;
9436;SDS011;4757;59.334;18.034;2023-03-22T21:45:25;5.30;;;4.10;;
9436;SDS011;4757;59.334;18.034;2023-03-22T21:47:54;4.87;;;3.43;;
9436;SDS011;4757;59.334;18.034;2023-03-22T21:50:22;4.03;;;3.63;;
9436;SDS011;4757;59.334;18.034;2023-03-22T21:52:50;6.80;;;4.00;;
9436;SDS011;4757;59.334;18.034;2023-03-22T21:55:16;4.13;;;3.73;;
9436;SDS011;4757;59.334;18.034;2023-03-22T21:57:44;4.67;;;3.43;;
9436;SDS011;4757;59.334;18.034;2023-03-22T22:00:12;3.43;;;2.90;;
9436;SDS011;4757;59.334;18.034;2023-03-22T22:02:44;3.70;;;2.97;;
9436;SDS011;4757;59.334;18.034;2023-03-22T22:05:11;2.30;;;1.60;;
9436;SDS011;4757;59.334;18.034;2023-03-22T22:07:42;2.93;;;2.67;;
9436;SDS011;4757;59.334;18.034;2023-03-22T22:10:10;1.97;;;1.80;;
9436;SDS011;4757;59.334;18.034;2023-03-22T22:12:37;3.23;;;1.70;;
9436;SDS011;4757;59.334;18.034;2023-03-22T22:15:03;1.30;;;1.10;;
9436;SDS011;4757;59.334;18.034;2023-03-22T22:17:30;4.27;;;1.50;;
9436;SDS011;4757;59.334;18.034;2023-03-22T22:19:56;2.17;;;1.77;;
9436;SDS011;4757;59.334;18.034;2023-03-22T22:22:22;3.23;;;1.00;;
9436;SDS011;4757;59.334;18.034;2023-03-22T22:24:48;2.73;;;1.63;;
9436;SDS011;4757;59.334;18.034;2023-03-22T22:27:14;1.40;;;1.30;;
9436;SDS011;4757;59.334;18.034;2023-03-22T22:29:42;1.87;;;1.40;;
9436;SDS011;4757;59.334;18.034;2023-03-22T22:32:08;1.13;;;1.03;;
9436;SDS011;4757;59.334;18.034;2023-03-22T22:34:35;1.93;;;1.30;;
9436;SDS011;4757;59.334;18.034;2023-03-22T22:37:01;1.67;;;1.00;;
9436;SDS011;4757;59.334;18.034;2023-03-22T22:39:28;1.50;;;1.20;;
9436;SDS011;4757;59.334;18.034;2023-03-22T22:41:53;1.53;;;1.20;;
9436;SDS011;4757;59.334;18.034;2023-03-22T22:44:19;2.40;;;1.20;;
9436;SDS011;4757;59.334;18.034;2023-03-22T22:46:46;4.33;;;1.30;;
9436;SDS011;4757;59.334;18.034;2023-03-22T22:49:12;3.07;;;1.57;;
9436;SDS011;4757;59.334;18.034;2023-03-22T22:51:37;1.63;;;1.00;;
9436;SDS011;4757;59.334;18.034;2023-03-22T22:54:04;3.07;;;1.60;;
9436;SDS011;4757;59.334;18.034;2023-03-22T22:56:30;6.67;;;1.93;;
9436;SDS011;4757;59.334;18.034;2023-03-22T22:59:01;2.27;;;1.30;;
9436;SDS011;4757;59.334;18.034;2023-03-22T23:01:27;1.93;;;1.23;;
9436;SDS011;4757;59.334;18.034;2023-03-22T23:03:53;3.37;;;1.43;;
9436;SDS011;4757;59.334;18.034;2023-03-22T23:06:20;2.93;;;1.23;;
9436;SDS011;4757;59.334;18.034;2023-03-22T23:08:47;5.17;;;1.93;;
9436;SDS011;4757;59.334;18.034;2023-03-22T23:11:21;5.73;;;1.60;;
9436;SDS011;4757;59.334;18.034;2023-03-22T23:13:50;3.90;;;1.73;;
9436;SDS011;4757;59.334;18.034;2023-03-22T23:16:17;7.43;;;1.70;;
9436;SDS011;4757;59.334;18.034;2023-03-22T23:18:46;4.07;;;1.43;;
9436;SDS011;4757;59.334;18.034;2023-03-22T23:21:20;5.83;;;1.70;;
9436;SDS011;4757;59.334;18.034;2023-03-22T23:23:50;6.00;;;2.33;;
9436;SDS011;4757;59.334;18.034;2023-03-22T23:26:17;4.27;;;1.90;;
9436;SDS011;4757;59.334;18.034;2023-03-22T23:28:50;6.60;;;1.97;;
9436;SDS011;4757;59.334;18.034;2023-03-22T23:31:18;5.23;;;2.20;;
9436;SDS011;4757;59.334;18.034;2023-03-22T23:33:45;6.03;;;2.70;;
9436;SDS011;4757;59.334;18.034;2023-03-22T23:36:13;5.47;;;1.93;;
9436;SDS011;4757;59.334;18.034;2023-03-22T23:38:50;4.83;;;2.67;;
9436;SDS011;4757;59.334;18.034;2023-03-22T23:41:21;8.50;;;2.10;;
9436;SDS011;4757;59.334;18.034;2023-03-22T23:43:48;11.23;;;2.60;;
9436;SDS011;4757;59.334;18.034;2023-03-22T23:46:15;6.17;;;2.50;;
9436;SDS011;4757;59.334;18.034;2023-03-22T23:48:42;8.43;;;2.10;;
9436;SDS011;4757;59.334;18.034;2023-03-22T23:51:10;10.03;;;2.80;;
9436;SDS011;4757;59.334;18.034;2023-03-22T23:53:37;8.20;;;2.20;;
9436;SDS011;4757;59.334;18.034;2023-03-22T23:56:04;6.83;;;2.40;;
9436;SDS011;4757;59.334;18.034;2023-03-22T23:58:35;7.67;;;2.30;;
